createdAt,value
2023-02-08T00:00:48.816Z,107.57
2023-02-08T00:03:16.074Z,146.15
2023-02-08T00:05:43.552Z,113.30
2023-02-08T00:08:10.863Z,107.25
2023-02-08T00:10:38.589Z,149.27
2023-02-08T00:13:06.270Z,143.82
2023-02-08T00:15:33.573Z,148.02
2023-02-08T00:18:03.015Z,161.70
2023-02-08T00:20:30.282Z,112.82
2023-02-08T00:22:57.646Z,117.72
2023-02-08T00:25:24.910Z,134.80
2023-02-08T00:27:52.211Z,183.95
2023-02-08T00:30:22.577Z,208.63
2023-02-08T00:32:50.138Z,123.57
2023-02-08T00:35:19.786Z,109.75
2023-02-08T00:37:47.314Z,161.30
2023-02-08T00:40:14.815Z,121.53
2023-02-08T00:42:42.224Z,170.52
2023-02-08T00:45:09.734Z,126.97
2023-02-08T00:47:37.184Z,199.82
2023-02-08T00:50:05.230Z,158.30
2023-02-08T00:52:34.740Z,214.30
2023-02-08T00:55:02.034Z,241.43
2023-02-08T00:57:29.415Z,273.85
2023-02-08T00:59:56.838Z,272.05
2023-02-08T01:02:24.233Z,207.77
2023-02-08T01:04:52.497Z,213.38
2023-02-08T01:07:19.924Z,288.85
2023-02-08T01:09:47.405Z,216.63
2023-02-08T01:12:17.088Z,193.60
2023-02-08T01:14:57.504Z,290.67
2023-02-08T01:17:24.927Z,179.38
2023-02-08T01:20:24.723Z,205.23
2023-02-08T01:22:58.551Z,307.58
2023-02-08T01:26:01.845Z,214.05
2023-02-08T01:28:51.026Z,167.73
2023-02-08T01:31:43.643Z,176.77
2023-02-08T01:46:47.475Z,299.70
2023-02-08T01:47:09.576Z,161.43
2023-02-08T01:55:15.993Z,166.43
2023-02-08T01:57:44.137Z,170.55
2023-02-08T02:00:17.128Z,189.88
2023-02-08T02:02:46.399Z,161.02
2023-02-08T02:05:14.232Z,220.57
2023-02-08T02:07:41.693Z,154.90
2023-02-08T02:10:12.000Z,137.50
2023-02-08T02:12:41.154Z,152.07
2023-02-08T02:15:09.149Z,155.20
2023-02-08T02:17:37.104Z,193.95
2023-02-08T02:20:08.974Z,174.95
2023-02-08T02:22:57.271Z,128.50
2023-02-08T02:25:25.673Z,153.70
2023-02-08T02:27:56.272Z,167.70
2023-02-08T02:30:37.073Z,235.35
2023-02-08T02:33:13.262Z,123.95
2023-02-08T02:35:51.687Z,112.88
2023-02-08T02:38:30.642Z,95.90
2023-02-08T02:41:40.405Z,126.32
2023-02-08T02:44:11.658Z,97.95
2023-02-08T02:46:55.341Z,103.18
2023-02-08T02:49:37.871Z,105.57
2023-02-08T02:52:11.337Z,112.20
2023-02-08T02:54:42.722Z,188.02
2023-02-08T02:57:12.451Z,209.25
2023-02-08T02:59:43.534Z,160.77
2023-02-08T03:02:11.263Z,104.13
2023-02-08T03:04:38.546Z,166.82
2023-02-08T03:07:14.569Z,112.50
2023-02-08T03:09:48.028Z,124.82
2023-02-08T03:12:18.398Z,138.73
2023-02-08T03:14:45.769Z,141.48
2023-02-08T03:17:28.421Z,168.00
2023-02-08T03:20:08.466Z,186.33
2023-02-08T03:22:44.600Z,183.68
2023-02-08T03:25:19.109Z,185.63
2023-02-08T03:28:01.939Z,201.43
2023-02-08T03:30:33.470Z,234.27
2023-02-08T03:33:05.919Z,193.23
2023-02-08T03:35:43.122Z,190.30
2023-02-08T03:38:12.255Z,193.20
2023-02-08T03:40:41.453Z,212.52
2023-02-08T03:43:29.209Z,103.95
2023-02-08T03:46:02.355Z,95.63
2023-02-08T03:48:30.511Z,94.65
2023-02-08T03:51:02.682Z,135.52
2023-02-08T03:53:33.878Z,93.40
2023-02-08T03:56:03.547Z,90.63
2023-02-08T03:58:39.357Z,119.82
2023-02-08T04:01:13.984Z,119.75
2023-02-08T04:03:42.196Z,103.63
2023-02-08T04:06:09.650Z,76.30
2023-02-08T04:08:37.162Z,77.65
2023-02-08T04:11:04.424Z,74.05
2023-02-08T04:13:31.703Z,102.05
2023-02-08T04:15:58.980Z,108.47
2023-02-08T04:18:29.032Z,109.72
2023-02-08T04:20:56.275Z,88.88
2023-02-08T04:23:25.821Z,129.13
2023-02-08T04:25:53.210Z,96.70
2023-02-08T04:28:20.648Z,138.25
2023-02-08T04:30:48.159Z,155.93
2023-02-08T04:33:15.606Z,117.47
2023-02-08T04:35:46.263Z,129.82
2023-02-08T04:38:13.591Z,141.70
2023-02-08T04:40:43.840Z,144.35
2023-02-08T04:43:11.296Z,145.90
2023-02-08T04:45:38.730Z,120.78
2023-02-08T04:48:07.488Z,128.95
2023-02-08T04:50:40.043Z,126.90
2023-02-08T04:53:07.591Z,123.93
2023-02-08T04:55:35.493Z,149.25
2023-02-08T04:58:02.888Z,148.20
2023-02-08T05:00:30.253Z,202.50
2023-02-08T05:03:00.490Z,206.18
2023-02-08T05:05:28.763Z,222.43
2023-02-08T05:07:58.923Z,164.30
2023-02-08T05:10:30.966Z,203.43
2023-02-08T05:12:58.324Z,163.65
2023-02-08T05:15:25.769Z,167.75
2023-02-08T05:17:53.231Z,164.15
2023-02-08T05:20:20.928Z,230.63
2023-02-08T05:22:48.223Z,235.05
2023-02-08T05:25:15.599Z,237.50
2023-02-08T05:27:45.005Z,175.00
2023-02-08T05:30:15.762Z,229.75
2023-02-08T05:32:43.084Z,229.65
2023-02-08T05:35:16.739Z,231.55
2023-02-08T05:37:44.163Z,243.80
2023-02-08T05:40:13.298Z,245.50
2023-02-08T05:42:42.574Z,188.57
2023-02-08T05:45:09.946Z,177.65
2023-02-08T05:47:37.726Z,237.80
2023-02-08T05:50:05.152Z,230.02
2023-02-08T05:52:32.744Z,187.52
2023-02-08T05:55:00.204Z,254.00
2023-02-08T05:57:28.674Z,196.73
2023-02-08T05:59:57.403Z,242.40
2023-02-08T06:02:24.556Z,250.85
2023-02-08T06:04:51.880Z,198.25
2023-02-08T06:07:19.114Z,211.80
2023-02-08T06:09:48.262Z,225.50
2023-02-08T06:12:15.774Z,206.48
2023-02-08T06:14:43.278Z,149.40
2023-02-08T06:17:10.663Z,165.55
2023-02-08T06:19:38.138Z,117.25
2023-02-08T06:22:11.512Z,102.90
2023-02-08T06:24:44.473Z,141.35
2023-02-08T06:27:12.583Z,97.18
2023-02-08T06:29:41.662Z,108.85
2023-02-08T06:32:09.156Z,153.43
2023-02-08T06:34:36.500Z,164.57
2023-02-08T06:37:06.920Z,185.77
2023-02-08T06:39:34.382Z,196.95
2023-02-08T06:42:05.785Z,140.50
2023-02-08T06:44:34.728Z,156.73
2023-02-08T06:47:04.813Z,163.85
2023-02-08T06:49:32.172Z,168.55
2023-02-08T06:51:59.782Z,249.90
2023-02-08T06:54:27.229Z,228.88
2023-02-08T06:57:46.251Z,314.48
2023-02-08T07:00:26.645Z,302.45
2023-02-08T07:02:54.326Z,306.40
2023-02-08T07:05:32.605Z,242.10
2023-02-08T07:08:08.367Z,245.43
2023-02-08T07:10:45.148Z,310.50
2023-02-08T07:13:15.692Z,264.67
2023-02-08T07:15:48.965Z,311.60
2023-02-08T07:20:52.195Z,311.80
2023-02-08T07:23:28.951Z,288.92
2023-02-08T07:26:12.624Z,293.83
2023-02-08T07:28:45.695Z,307.15
2023-02-08T07:31:14.705Z,238.07
2023-02-08T07:33:42.102Z,223.32
2023-02-08T07:36:12.219Z,234.50
2023-02-08T07:38:44.644Z,322.60
2023-02-08T07:41:12.990Z,267.85
2023-02-08T07:43:41.228Z,260.13
2023-02-08T07:46:15.351Z,329.02
2023-02-08T07:48:43.795Z,287.83
2023-02-08T07:51:11.557Z,341.63
2023-02-08T07:53:39.470Z,285.63
2023-02-08T07:56:06.979Z,284.52
2023-02-08T07:58:40.769Z,283.75
2023-02-08T08:01:23.608Z,371.85
2023-02-08T08:03:54.040Z,295.10
2023-02-08T08:06:22.140Z,352.95
2023-02-08T08:08:49.667Z,376.73
2023-02-08T08:11:17.732Z,383.27
2023-02-08T08:13:45.037Z,306.00
2023-02-08T08:16:12.351Z,362.33
2023-02-08T08:18:39.709Z,354.88
2023-02-08T08:21:07.421Z,298.73
2023-02-08T08:23:36.191Z,317.23
2023-02-08T08:26:09.613Z,396.33
2023-02-08T08:28:37.742Z,383.40
2023-02-08T08:31:09.745Z,376.35
2023-02-08T08:33:36.981Z,283.58
2023-02-08T08:36:04.310Z,294.77
2023-02-08T08:38:31.554Z,287.42
2023-02-08T08:40:58.879Z,307.02
2023-02-08T08:43:28.727Z,393.38
2023-02-08T08:48:48.580Z,342.05
2023-02-08T08:51:18.432Z,430.67
2023-02-08T08:53:54.350Z,337.58
2023-02-08T08:56:21.875Z,336.52
2023-02-08T08:58:51.723Z,334.23
2023-02-08T09:01:21.707Z,326.80
2023-02-08T09:03:54.731Z,411.35
2023-02-08T09:06:27.610Z,317.33
2023-02-08T09:08:57.780Z,416.67
2023-02-08T09:11:25.325Z,409.60
2023-02-08T09:13:56.781Z,343.98
2023-02-08T09:16:28.946Z,331.58
2023-02-08T09:19:05.233Z,309.05
2023-02-08T09:21:33.018Z,389.45
2023-02-08T09:24:02.049Z,336.77
2023-02-08T09:26:30.334Z,324.05
2023-02-08T09:29:00.376Z,413.77
2023-02-08T09:31:29.244Z,413.75
2023-02-08T09:33:57.554Z,452.67
2023-02-08T09:36:26.139Z,446.73
2023-02-08T09:38:58.107Z,354.27
2023-02-08T09:41:32.492Z,426.65
2023-02-08T09:44:12.245Z,432.38
2023-02-08T09:46:41.594Z,380.10
2023-02-08T09:49:18.925Z,456.90
2023-02-08T09:52:02.856Z,406.17
2023-02-08T09:54:39.738Z,398.45
2023-02-08T09:57:10.570Z,424.55
2023-02-08T09:59:38.238Z,358.35
2023-02-08T10:02:05.358Z,335.00
2023-02-08T10:04:42.300Z,330.25
2023-02-08T10:07:12.289Z,302.95
2023-02-08T10:09:39.667Z,278.27
2023-02-08T10:19:25.049Z,307.40
2023-02-08T10:22:07.439Z,347.58
2023-02-08T10:24:45.963Z,159.43
2023-02-08T10:27:16.505Z,180.85
2023-02-08T10:29:46.832Z,160.70
2023-02-08T10:32:20.286Z,143.52
2023-02-08T10:34:50.312Z,135.50
2023-02-08T10:37:21.924Z,124.95
2023-02-08T10:39:50.782Z,165.73
2023-02-08T10:42:22.586Z,148.88
2023-02-08T10:45:01.118Z,177.05
2023-02-08T10:47:28.389Z,111.18
2023-02-08T10:50:04.810Z,81.20
2023-02-08T10:52:32.173Z,21.42
2023-02-08T10:54:59.774Z,12.52
2023-02-08T10:57:29.413Z,12.55
2023-02-08T11:00:02.085Z,15.30
2023-02-08T11:02:32.314Z,14.55
2023-02-08T11:04:59.776Z,35.88
2023-02-08T11:07:31.679Z,46.08
2023-02-08T11:10:28.410Z,40.47
2023-02-08T11:12:59.756Z,38.05
2023-02-08T11:15:47.308Z,15.25
2023-02-08T11:18:18.859Z,10.00
2023-02-08T11:20:48.856Z,13.82
2023-02-08T11:23:21.410Z,8.88
2023-02-08T11:25:48.596Z,7.05
2023-02-08T11:28:30.006Z,9.52
2023-02-08T11:30:59.069Z,6.93
2023-02-08T11:33:27.541Z,9.90
2023-02-08T11:35:56.560Z,7.90
2023-02-08T11:38:27.627Z,6.30
2023-02-08T11:41:00.372Z,9.05
2023-02-08T11:43:34.235Z,9.50
2023-02-08T11:46:02.840Z,8.80
2023-02-08T11:48:41.604Z,8.77
2023-02-08T11:51:09.485Z,7.97
2023-02-08T11:53:38.556Z,7.90
2023-02-08T11:56:08.878Z,6.07
2023-02-08T11:58:36.532Z,4.90
2023-02-08T12:01:05.981Z,4.18
2023-02-08T12:03:40.800Z,4.38
2023-02-08T12:06:14.068Z,4.35
2023-02-08T12:08:52.541Z,4.68
2023-02-08T12:11:27.512Z,4.57
2023-02-08T12:14:09.631Z,4.45
2023-02-08T12:16:50.332Z,4.90
2023-02-08T12:19:26.683Z,4.93
2023-02-08T12:22:14.152Z,4.97
2023-02-08T12:24:41.329Z,4.43
2023-02-08T12:27:20.653Z,4.35
2023-02-08T12:29:50.850Z,4.03
2023-02-08T12:32:36.943Z,3.95
2023-02-08T12:35:39.930Z,3.85
2023-02-08T12:38:39.750Z,4.55
2023-02-08T12:41:25.294Z,3.90
2023-02-08T12:44:02.385Z,3.50
2023-02-08T12:46:38.866Z,4.00
2023-02-08T12:49:09.380Z,3.63
2023-02-08T12:51:36.544Z,4.10
2023-02-08T12:54:12.968Z,3.60
2023-02-08T12:56:53.523Z,5.38
2023-02-08T12:59:26.109Z,5.80
2023-02-08T13:01:57.388Z,5.80
2023-02-08T13:04:27.497Z,6.55
2023-02-08T13:06:58.444Z,7.38
2023-02-08T13:09:30.701Z,6.43
2023-02-08T13:12:05.391Z,7.25
2023-02-08T13:14:34.178Z,7.43
2023-02-08T13:17:20.007Z,6.47
2023-02-08T13:20:01.800Z,6.28
2023-02-08T13:22:40.134Z,6.95
2023-02-08T13:25:22.163Z,6.55
2023-02-08T13:27:49.525Z,6.95
2023-02-08T13:30:21.626Z,6.65
2023-02-08T13:32:50.539Z,6.97
2023-02-08T13:35:19.378Z,5.93
2023-02-08T13:37:55.088Z,6.43
2023-02-08T13:40:28.410Z,6.03
2023-02-08T13:43:00.964Z,6.32
2023-02-08T13:45:36.964Z,6.00
2023-02-08T13:48:06.047Z,6.30
2023-02-08T13:50:47.749Z,6.60
2023-02-08T13:53:15.925Z,4.68
2023-02-08T13:55:56.992Z,7.20
2023-02-08T13:58:29.809Z,2.88
2023-02-08T14:00:57.302Z,8.02
2023-02-08T14:03:29.011Z,5.35
2023-02-08T14:05:59.077Z,3.90
2023-02-08T14:08:44.736Z,2.85
2023-02-08T14:11:15.119Z,2.55
2023-02-08T14:13:49.009Z,7.13
2023-02-08T14:16:36.448Z,5.65
2023-02-08T14:19:05.382Z,8.20
2023-02-08T14:21:38.807Z,5.10
2023-02-08T14:24:08.004Z,3.63
2023-02-08T14:26:36.912Z,3.40
2023-02-08T14:29:06.306Z,4.10
2023-02-08T14:31:41.320Z,3.47
2023-02-08T14:34:21.493Z,17.30
2023-02-08T14:36:58.832Z,13.57
2023-02-08T14:39:34.718Z,4.95
2023-02-08T14:42:05.702Z,5.25
2023-02-08T14:44:41.011Z,7.90
2023-02-08T14:47:14.464Z,7.63
2023-02-08T14:49:45.894Z,4.38
2023-02-08T14:52:16.622Z,3.53
2023-02-08T14:54:49.301Z,4.55
2023-02-08T14:57:24.072Z,5.25
2023-02-08T14:59:51.763Z,4.75
2023-02-08T15:02:25.989Z,6.15
2023-02-08T15:04:53.355Z,4.95
2023-02-08T15:07:25.676Z,6.78
2023-02-08T15:12:23.449Z,5.15
2023-02-08T15:14:50.777Z,4.07
2023-02-08T15:17:30.470Z,3.58
2023-02-08T15:19:58.545Z,4.32
2023-02-08T15:22:29.353Z,4.35
2023-02-08T15:25:01.754Z,3.92
2023-02-08T15:30:11.097Z,4.47
2023-02-08T15:32:41.469Z,6.38
2023-02-08T15:35:41.646Z,4.35
2023-02-08T15:38:42.229Z,4.60
2023-02-08T15:41:16.961Z,4.40
2023-02-08T15:43:44.175Z,4.15
2023-02-08T15:46:21.830Z,4.53
2023-02-08T15:48:49.686Z,4.20
2023-02-08T15:51:17.623Z,5.53
2023-02-08T15:53:46.181Z,5.45
2023-02-08T15:56:24.008Z,4.25
2023-02-08T15:59:02.317Z,5.10
2023-02-08T16:01:31.430Z,4.70
2023-02-08T16:04:00.243Z,4.97
2023-02-08T16:06:29.334Z,5.88
2023-02-08T16:09:01.171Z,8.95
2023-02-08T16:11:31.326Z,7.03
2023-02-08T16:13:59.476Z,8.10
2023-02-08T16:16:38.047Z,10.88
2023-02-08T16:19:26.013Z,9.55
2023-02-08T16:21:54.533Z,25.08
2023-02-08T16:24:23.346Z,15.15
2023-02-08T16:26:56.888Z,8.75
2023-02-08T16:29:31.881Z,12.10
2023-02-08T16:32:01.289Z,17.80
2023-02-08T16:34:29.312Z,21.70
2023-02-08T16:36:56.552Z,27.70
2023-02-08T16:39:37.270Z,74.18
2023-02-08T16:42:15.983Z,153.07
2023-02-08T16:44:58.236Z,68.15
2023-02-08T16:47:27.335Z,107.68
2023-02-08T16:49:54.589Z,257.45
2023-02-08T16:52:22.017Z,189.23
2023-02-08T16:54:49.397Z,174.07
2023-02-08T16:57:16.601Z,178.30
2023-02-08T16:59:43.903Z,175.07
2023-02-08T17:02:12.868Z,162.65
2023-02-08T17:04:40.223Z,209.05
2023-02-08T17:07:11.386Z,169.73
2023-02-08T17:09:39.240Z,222.07
2023-02-08T17:12:21.495Z,230.05
2023-02-08T17:14:49.756Z,141.77
2023-02-08T17:17:17.010Z,235.40
2023-02-08T17:19:44.532Z,292.58
2023-02-08T17:22:11.778Z,266.08
2023-02-08T17:24:39.442Z,358.90
2023-02-08T17:27:06.931Z,330.88
2023-02-08T17:29:34.230Z,324.77
2023-02-08T17:32:01.468Z,353.33
2023-02-08T17:34:29.063Z,385.35
2023-02-08T17:36:56.339Z,307.60
2023-02-08T17:39:23.559Z,329.83
2023-02-08T17:41:50.770Z,418.80
2023-02-08T17:44:19.225Z,338.77
2023-02-08T17:46:46.480Z,421.00
2023-02-08T17:49:13.824Z,440.52
2023-02-08T17:51:41.086Z,429.55
2023-02-08T17:54:08.822Z,317.80
2023-02-08T17:56:36.437Z,315.40
2023-02-08T17:59:06.539Z,346.67
2023-02-08T18:01:34.161Z,303.92
2023-02-08T18:04:01.879Z,377.33
2023-02-08T18:06:29.172Z,335.15
2023-02-08T18:08:56.444Z,405.73
2023-02-08T18:11:24.205Z,351.40
2023-02-08T18:13:52.726Z,329.15
2023-02-08T18:16:21.434Z,275.92
2023-02-08T18:18:49.137Z,323.42
2023-02-08T18:21:20.634Z,314.02
2023-02-08T18:23:49.648Z,375.73
2023-02-08T18:26:17.811Z,457.40
2023-02-08T18:28:45.711Z,387.98
2023-02-08T18:31:14.987Z,337.20
2023-02-08T18:33:42.971Z,312.17
2023-02-08T18:36:13.593Z,297.20
2023-02-08T18:38:41.719Z,295.20
2023-02-08T18:41:10.051Z,381.23
2023-02-08T18:43:38.131Z,336.58
2023-02-08T18:46:06.586Z,272.50
2023-02-08T18:48:34.215Z,375.05
2023-02-08T18:51:03.010Z,381.08
2023-02-08T18:53:31.767Z,304.95
2023-02-08T18:55:59.852Z,299.20
2023-02-08T18:58:27.258Z,344.88
2023-02-08T19:00:55.283Z,354.90
2023-02-08T19:03:22.825Z,357.63
2023-02-08T19:05:50.045Z,386.88
2023-02-08T19:08:17.289Z,391.88
2023-02-08T19:10:44.699Z,320.52
2023-02-08T19:13:11.943Z,353.02
2023-02-08T19:15:39.631Z,390.75
2023-02-08T19:18:07.739Z,408.30
2023-02-08T19:20:36.505Z,422.88
2023-02-08T19:23:04.431Z,439.75
2023-02-08T19:25:32.061Z,440.23
2023-02-08T19:27:59.330Z,349.90
2023-02-08T19:30:26.596Z,434.48
2023-02-08T19:32:53.836Z,328.92
2023-02-08T19:35:21.994Z,401.17
2023-02-08T19:37:51.400Z,397.90
2023-02-08T19:40:19.984Z,355.65
2023-02-08T19:42:47.255Z,361.83
2023-02-08T19:45:14.760Z,389.27
2023-02-08T19:47:51.091Z,343.33
2023-02-08T19:50:18.948Z,445.45
2023-02-08T19:52:46.113Z,347.05
2023-02-08T19:55:13.405Z,427.33
2023-02-08T19:57:40.936Z,442.88
2023-02-08T20:00:22.514Z,342.48
2023-02-08T20:02:51.019Z,347.85
2023-02-08T20:05:18.358Z,437.30
2023-02-08T20:07:45.608Z,416.00
2023-02-08T20:10:12.875Z,320.52
2023-02-08T20:12:40.051Z,313.08
2023-02-08T20:15:07.370Z,396.77
2023-02-08T20:17:34.583Z,300.67
2023-02-08T20:20:01.803Z,337.08
2023-02-08T20:22:29.210Z,405.33
2023-02-08T20:24:56.438Z,389.20
2023-02-08T20:27:23.663Z,393.67
2023-02-08T20:29:50.866Z,336.25
2023-02-08T20:32:18.655Z,335.50
2023-02-08T20:34:58.421Z,294.38
2023-02-08T20:37:26.655Z,313.30
2023-02-08T20:39:53.913Z,408.35
2023-02-08T20:42:21.164Z,336.55
2023-02-08T20:44:48.433Z,325.15
2023-02-08T20:47:19.213Z,335.77
2023-02-08T20:49:46.645Z,347.27
2023-02-08T20:52:13.990Z,357.65
2023-02-08T20:54:42.241Z,354.92
2023-02-08T20:57:18.260Z,371.98
2023-02-08T20:59:45.929Z,314.08
2023-02-08T21:02:17.838Z,400.73
2023-02-08T21:04:45.155Z,407.60
2023-02-08T21:07:12.409Z,349.67
2023-02-08T21:09:39.717Z,284.58
2023-02-08T21:12:07.082Z,354.67
2023-02-08T21:14:34.434Z,371.80
2023-02-08T21:17:01.749Z,300.65
2023-02-08T21:19:30.166Z,374.77
2023-02-08T21:22:02.439Z,334.17
2023-02-08T21:24:30.893Z,268.25
2023-02-08T21:26:58.427Z,251.93
2023-02-08T21:29:25.759Z,181.05
2023-02-08T21:31:54.407Z,243.75
2023-02-08T21:34:22.496Z,210.27
2023-02-08T21:36:49.755Z,264.15
2023-02-08T21:39:17.017Z,295.55
2023-02-08T21:41:44.304Z,291.70
2023-02-08T21:44:11.705Z,265.83
2023-02-08T21:46:38.896Z,346.67
2023-02-08T21:49:24.682Z,268.33
2023-02-08T21:52:10.640Z,246.07
2023-02-08T21:54:46.835Z,195.73
2023-02-08T21:57:14.065Z,196.75
2023-02-08T21:59:41.679Z,286.17
2023-02-08T22:02:11.932Z,279.20
2023-02-08T22:04:57.663Z,277.98
2023-02-08T22:07:25.503Z,212.40
2023-02-08T22:09:52.802Z,214.40
2023-02-08T22:12:21.039Z,282.27
2023-02-08T22:14:48.693Z,278.52
2023-02-08T22:17:16.236Z,195.13
2023-02-08T22:19:43.605Z,183.00
2023-02-08T22:22:11.396Z,285.35
2023-02-08T22:24:39.871Z,286.90
2023-02-08T22:27:07.161Z,230.20
2023-02-08T22:29:34.494Z,247.15
2023-02-08T22:32:01.909Z,338.60
2023-02-08T22:34:29.253Z,241.35
2023-02-08T22:36:56.513Z,284.73
2023-02-08T22:39:23.877Z,267.25
2023-02-08T22:41:51.164Z,260.08
2023-02-08T22:44:18.356Z,334.58
2023-02-08T22:46:45.653Z,289.88
2023-02-08T22:49:12.957Z,339.65
2023-02-08T22:51:40.213Z,266.45
2023-02-08T22:54:07.572Z,278.13
2023-02-08T22:56:34.868Z,243.15
2023-02-08T22:59:02.196Z,318.67
2023-02-08T23:01:29.736Z,325.02
2023-02-08T23:03:56.970Z,268.15
2023-02-08T23:06:24.264Z,361.55
2023-02-08T23:08:51.581Z,356.38
2023-02-08T23:11:19.154Z,354.35
2023-02-08T23:13:46.374Z,365.35
2023-02-08T23:16:14.340Z,361.40
2023-02-08T23:18:41.787Z,358.25
2023-02-08T23:21:10.141Z,284.75
2023-02-08T23:23:37.594Z,307.13
2023-02-08T23:26:05.863Z,301.05
2023-02-08T23:28:33.174Z,297.55
2023-02-08T23:31:00.452Z,371.13
2023-02-08T23:33:27.731Z,369.15
2023-02-08T23:35:55.047Z,383.20
2023-02-08T23:38:22.359Z,305.55
2023-02-08T23:40:49.705Z,284.80
2023-02-08T23:43:16.965Z,377.48
2023-02-08T23:45:44.280Z,384.50
2023-02-08T23:48:11.540Z,368.95
2023-02-08T23:50:38.718Z,358.95
2023-02-08T23:53:05.947Z,303.55
2023-02-08T23:55:33.157Z,374.42
2023-02-08T23:58:00.374Z,306.77
